Time;durP1;ratioP1;P1;durP2;ratioP2;P2;SDS_P1;SDS_P2;PMS_P1;PMS_P2;Temp;Humidity;BMP_temperature;BMP_pressure;BME280_temperature;BME280_humidity;BME280_pressure;Samples;Min_cycle;Max_cycle;Signal;HPM_P1;HPM_P2
2022/06/17 00:01:14;;;;;;;9.63;6.55;;;16.00;99.90;;;;;;5080106;28;20380;-59
2022/06/17 00:03:39;;;;;;;9.95;6.80;;;16.00;99.90;;;;;;5078713;28;20086;-59
2022/06/17 00:06:05;;;;;;;10.52;6.63;;;15.90;99.90;;;;;;5084671;28;20039;-59
2022/06/17 00:08:35;;;;;;;12.55;6.35;;;16.00;99.90;;;;;;5084849;28;20357;-59
2022/06/17 00:11:01;;;;;;;11.85;6.38;;;16.10;99.90;;;;;;5088604;28;20872;-59
2022/06/17 00:13:27;;;;;;;9.65;6.40;;;16.10;99.90;;;;;;5085547;28;20041;-59
2022/06/17 00:15:53;;;;;;;11.60;6.07;;;16.20;99.90;;;;;;5071212;28;20028;-60
2022/06/17 00:18:20;;;;;;;9.70;6.47;;;16.10;99.90;;;;;;5079321;28;20123;-59
2022/06/17 00:20:48;;;;;;;9.15;6.75;;;15.90;99.90;;;;;;5090333;28;20032;-60
2022/06/17 00:23:17;;;;;;;10.23;6.65;;;15.80;99.90;;;;;;5089657;28;20117;-59
2022/06/17 00:25:45;;;;;;;22.15;6.63;;;15.70;99.90;;;;;;5087686;28;20032;-60
2022/06/17 00:28:19;;;;;;;15.25;6.40;;;15.60;99.90;;;;;;5092397;28;20043;-59
2022/06/17 00:30:46;;;;;;;10.50;6.32;;;15.60;99.90;;;;;;5089580;28;20115;-60
2022/06/17 00:33:14;;;;;;;11.98;6.78;;;15.50;99.90;;;;;;5090027;28;20543;-59
2022/06/17 00:35:44;;;;;;;12.25;6.28;;;15.40;99.90;;;;;;5083164;28;20054;-60
2022/06/17 00:38:15;;;;;;;9.02;6.38;;;15.30;99.90;;;;;;5091909;28;20057;-60
2022/06/17 00:40:42;;;;;;;10.43;6.88;;;15.30;99.90;;;;;;5089635;28;20490;-59
2022/06/17 00:43:28;;;;;;;11.75;6.70;;;15.40;99.90;;;;;;5089293;28;20020;-59
2022/06/17 00:46:17;;;;;;;13.13;6.75;;;15.40;99.90;;;;;;5090531;28;20036;-59
2022/06/17 00:49:03;;;;;;;10.43;6.57;;;15.40;99.90;;;;;;5082640;28;20028;-60
2022/06/17 00:51:44;;;;;;;9.70;6.32;;;15.30;99.90;;;;;;5079934;28;20028;-59
2022/06/17 00:54:26;;;;;;;10.73;6.45;;;15.30;99.90;;;;;;5086068;28;20066;-59
2022/06/17 00:56:52;;;;;;;12.07;6.40;;;15.30;99.90;;;;;;5081134;28;20024;-59
2022/06/17 00:59:18;;;;;;;10.63;6.22;;;15.10;99.90;;;;;;5091224;28;20040;-59
2022/06/17 01:02:05;;;;;;;9.98;5.95;;;15.10;99.90;;;;;;5083903;28;20047;-59
2022/06/17 01:04:48;;;;;;;7.80;5.88;;;15.20;99.90;;;;;;5088476;28;20029;-59
2022/06/17 01:07:22;;;;;;;10.38;6.55;;;15.20;99.90;;;;;;5084625;28;20480;-60
2022/06/17 01:09:58;;;;;;;9.45;5.65;;;15.20;99.90;;;;;;5077316;28;20043;-60
2022/06/17 01:12:27;;;;;;;9.88;5.63;;;15.20;99.90;;;;;;5076405;28;20036;-59
2022/06/17 01:14:55;;;;;;;9.50;5.90;;;15.10;99.90;;;;;;5077391;28;20032;-59
2022/06/17 01:17:22;;;;;;;8.57;6.03;;;15.00;99.90;;;;;;5083983;28;20043;-59
2022/06/17 01:19:51;;;;;;;13.18;5.93;;;15.00;99.90;;;;;;5084293;28;20032;-60
2022/06/17 01:22:37;;;;;;;11.25;6.13;;;15.00;99.90;;;;;;5088495;28;20098;-59
2022/06/17 01:25:05;;;;;;;10.10;5.72;;;14.90;99.90;;;;;;5082718;28;20020;-59
2022/06/17 01:27:38;;;;;;;11.68;5.95;;;14.80;99.90;;;;;;5089566;28;20052;-59
2022/06/17 01:30:06;;;;;;;12.45;5.82;;;14.70;99.90;;;;;;5088302;28;20047;-58
2022/06/17 01:32:37;;;;;;;10.43;6.13;;;14.70;99.90;;;;;;5089775;28;20495;-59
2022/06/17 01:35:04;;;;;;;8.20;5.95;;;14.60;99.90;;;;;;5084771;28;20039;-59
2022/06/17 01:37:31;;;;;;;10.05;5.88;;;14.50;99.90;;;;;;5088121;28;20024;-59
2022/06/17 01:39:59;;;;;;;8.07;5.38;;;14.40;99.90;;;;;;5084527;28;20036;-58
2022/06/17 01:42:26;;;;;;;8.55;5.68;;;14.50;99.90;;;;;;5088417;28;20032;-59
2022/06/17 01:44:54;;;;;;;12.10;5.90;;;14.50;99.90;;;;;;5087469;28;20032;-60
2022/06/17 01:47:25;;;;;;;8.85;5.20;;;14.60;99.90;;;;;;5088194;28;20032;-59
2022/06/17 01:49:59;;;;;;;8.13;5.68;;;14.50;99.90;;;;;;5088326;28;20107;-60
2022/06/17 01:52:33;;;;;;;12.02;6.32;;;14.50;99.90;;;;;;5086468;28;20031;-59
2022/06/17 01:55:23;;;;;;;8.88;5.60;;;14.50;99.90;;;;;;5085754;28;20036;-59
2022/06/17 01:58:09;;;;;;;8.27;6.13;;;14.50;99.90;;;;;;5071689;28;20634;-60
2022/06/17 02:00:35;;;;;;;8.00;5.80;;;14.40;99.90;;;;;;5074467;28;20036;-59
2022/06/17 02:03:20;;;;;;;10.93;6.25;;;14.20;99.90;;;;;;5074975;28;20029;-59
2022/06/17 02:05:53;;;;;;;11.07;6.13;;;14.20;99.90;;;;;;5080421;28;20031;-60
2022/06/17 02:08:19;;;;;;;8.10;5.00;;;14.10;99.90;;;;;;5082219;28;20400;-60
2022/06/17 02:10:49;;;;;;;8.40;5.50;;;14.20;99.90;;;;;;5083983;28;20042;-59
2022/06/17 02:13:15;;;;;;;11.30;7.28;;;14.20;99.90;;;;;;5085145;28;20488;-59
2022/06/17 02:15:42;;;;;;;15.55;6.00;;;14.00;99.90;;;;;;5087004;28;20715;-58
2022/06/17 02:18:15;;;;;;;10.63;6.50;;;13.90;99.90;;;;;;5086286;28;20020;-59
2022/06/17 02:20:41;;;;;;;9.70;6.40;;;13.70;99.90;;;;;;5087927;28;20076;-59
2022/06/17 02:23:08;;;;;;;9.20;6.35;;;13.60;99.90;;;;;;5073589;28;20373;-59
2022/06/17 02:25:41;;;;;;;13.00;6.72;;;13.70;99.90;;;;;;5080417;28;20058;-59
2022/06/17 02:28:08;;;;;;;9.85;6.80;;;13.80;99.90;;;;;;5082521;28;20056;-58
2022/06/17 02:30:35;;;;;;;14.30;6.70;;;13.80;99.90;;;;;;5086373;28;20032;-59
2022/06/17 02:33:04;;;;;;;8.98;5.97;;;13.70;99.90;;;;;;5088452;28;20036;-59
2022/06/17 02:35:50;;;;;;;11.02;6.32;;;13.60;99.90;;;;;;5085504;28;20468;-59
2022/06/17 02:38:19;;;;;;;10.20;6.40;;;13.50;99.90;;;;;;5087405;28;20036;-59
2022/06/17 02:40:48;;;;;;;9.90;6.72;;;13.50;99.90;;;;;;5088597;28;20060;-59
2022/06/17 02:43:26;;;;;;;10.88;6.18;;;13.40;99.90;;;;;;5088118;28;20307;-59
2022/06/17 02:46:04;;;;;;;9.27;5.90;;;13.30;99.90;;;;;;5087645;28;20055;-60
2022/06/17 02:48:54;;;;;;;10.20;6.03;;;13.30;99.90;;;;;;5087983;28;20469;-59
2022/06/17 02:51:22;;;;;;;8.32;5.75;;;13.30;99.90;;;;;;5084188;28;20047;-59
2022/06/17 02:53:48;;;;;;;9.60;6.13;;;13.40;99.90;;;;;;5084769;28;20050;-59
2022/06/17 02:56:21;;;;;;;9.15;6.28;;;13.40;99.90;;;;;;5085565;28;20099;-59
2022/06/17 02:59:10;;;;;;;15.85;6.50;;;13.30;99.90;;;;;;5088294;28;20035;-59
2022/06/17 03:01:38;;;;;;;9.18;5.93;;;13.40;99.90;;;;;;5081450;28;20040;-59
2022/06/17 03:04:12;;;;;;;9.20;6.60;;;13.30;99.90;;;;;;5067620;28;20040;-59
2022/06/17 03:06:42;;;;;;;11.65;6.20;;;13.40;99.90;;;;;;5072013;28;20040;-59
2022/06/17 03:09:21;;;;;;;13.05;6.53;;;13.40;99.90;;;;;;5084829;28;20495;-59
2022/06/17 03:11:55;;;;;;;10.20;6.38;;;13.40;99.90;;;;;;5089613;28;20670;-59
2022/06/17 03:14:22;;;;;;;9.55;5.22;;;13.20;99.90;;;;;;5090781;28;20036;-59
2022/06/17 03:16:52;;;;;;;11.35;6.35;;;13.10;99.90;;;;;;5079746;28;20033;-60
2022/06/17 03:19:18;;;;;;;12.88;6.40;;;13.00;99.90;;;;;;5077939;28;20027;-59
2022/06/17 03:21:44;;;;;;;10.60;6.32;;;13.00;99.90;;;;;;5087269;28;20036;-59
2022/06/17 03:24:43;;;;;;;10.95;6.57;;;13.00;99.90;;;;;;5083537;28;20024;-59
2022/06/17 03:27:20;;;;;;;9.65;6.60;;;13.00;99.90;;;;;;5086275;28;20028;-59
2022/06/17 03:29:48;;;;;;;12.85;6.63;;;13.00;99.90;;;;;;5085792;28;20052;-59
2022/06/17 03:32:19;;;;;;;10.68;6.68;;;12.90;99.90;;;;;;5070390;28;20073;-58
2022/06/17 03:34:51;;;;;;;19.17;6.90;;;12.80;99.90;;;;;;5083924;28;20024;-59
2022/06/17 03:37:38;;;;;;;10.30;7.00;;;12.80;99.90;;;;;;5084484;28;20546;-59
2022/06/17 03:40:17;;;;;;;8.63;6.18;;;12.80;99.90;;;;;;5080738;28;20043;-59
2022/06/17 03:43:00;;;;;;;10.35;6.40;;;12.70;99.90;;;;;;5087028;28;20040;-59
2022/06/17 03:45:56;;;;;;;10.23;6.35;;;12.50;99.90;;;;;;5068591;28;20032;-59
2022/06/17 03:48:43;;;;;;;12.43;6.78;;;12.50;99.90;;;;;;5084723;28;20036;-59
2022/06/17 03:51:21;;;;;;;9.40;6.47;;;12.70;99.90;;;;;;5067045;28;20803;-60
2022/06/17 03:53:48;;;;;;;10.48;6.00;;;12.70;99.90;;;;;;5083711;28;20040;-59
2022/06/17 03:56:31;;;;;;;13.30;6.68;;;12.80;99.90;;;;;;5067882;28;20094;-59
2022/06/17 03:59:00;;;;;;;12.57;6.43;;;12.80;99.90;;;;;;5077500;28;20119;-60
2022/06/17 04:01:34;;;;;;;10.85;6.88;;;12.80;99.90;;;;;;5087096;28;20024;-59
2022/06/17 04:04:11;;;;;;;11.38;6.38;;;12.90;99.90;;;;;;5085727;28;20033;-61
2022/06/17 04:06:41;;;;;;;9.23;6.72;;;12.90;99.90;;;;;;5069962;28;20426;-59
2022/06/17 04:09:17;;;;;;;7.93;6.10;;;13.00;99.90;;;;;;5082542;28;20028;-59
2022/06/17 04:11:46;;;;;;;8.85;5.93;;;13.00;99.90;;;;;;5086621;28;20060;-59
2022/06/17 04:14:21;;;;;;;7.97;5.93;;;13.10;99.90;;;;;;5086588;28;20063;-59
2022/06/17 04:17:16;;;;;;;13.32;6.63;;;13.40;99.90;;;;;;5091893;28;20031;-59
2022/06/17 04:19:43;;;;;;;11.13;6.32;;;13.50;99.90;;;;;;5079746;28;20077;-59
2022/06/17 04:22:25;;;;;;;10.18;6.63;;;13.70;99.90;;;;;;5084549;28;20092;-59
2022/06/17 04:24:57;;;;;;;9.02;6.43;;;13.80;99.90;;;;;;5089758;28;20539;-60
2022/06/17 04:27:24;;;;;;;11.60;7.05;;;14.00;99.90;;;;;;5080513;28;20074;-59
2022/06/17 04:29:53;;;;;;;10.57;6.70;;;14.00;99.90;;;;;;5083082;28;20126;-59
2022/06/17 04:32:28;;;;;;;8.02;5.55;;;14.10;99.90;;;;;;5098973;28;20036;-60
2022/06/17 04:34:53;;;;;;;9.43;6.07;;;14.20;99.90;;;;;;5091188;28;20058;-59
2022/06/17 04:37:21;;;;;;;8.20;5.82;;;14.20;99.90;;;;;;5078354;28;20159;-59
2022/06/17 04:39:54;;;;;;;12.60;6.82;;;14.20;99.90;;;;;;5084139;28;20468;-59
2022/06/17 04:42:33;;;;;;;11.77;6.85;;;14.20;99.90;;;;;;5071622;28;20020;-60
2022/06/17 04:45:00;;;;;;;11.18;6.35;;;14.40;99.90;;;;;;5089855;28;20044;-60
2022/06/17 04:47:26;;;;;;;8.10;5.88;;;14.40;99.90;;;;;;5098267;28;20039;-59
2022/06/17 04:49:56;;;;;;;12.70;6.05;;;14.40;99.90;;;;;;5091124;28;20024;-59
2022/06/17 04:52:34;;;;;;;12.63;6.05;;;14.50;99.90;;;;;;5088340;28;20127;-59
2022/06/17 04:55:03;;;;;;;10.85;5.78;;;14.60;99.90;;;;;;5077798;28;21007;-61
2022/06/17 04:57:30;;;;;;;10.45;6.57;;;14.70;99.90;;;;;;5089569;28;20028;-59
2022/06/17 04:59:58;;;;;;;10.48;6.50;;;14.60;99.90;;;;;;5093741;28;20051;-60
2022/06/17 05:02:27;;;;;;;13.32;7.00;;;14.60;99.90;;;;;;5089232;28;20040;-59
2022/06/17 05:04:57;;;;;;;14.77;7.00;;;14.70;99.90;;;;;;5088642;28;20028;-59
2022/06/17 05:07:25;;;;;;;10.18;6.22;;;14.80;99.90;;;;;;5089117;28;20032;-59
2022/06/17 05:09:57;;;;;;;7.68;6.10;;;15.00;99.90;;;;;;5073471;28;20035;-60
2022/06/17 05:12:39;;;;;;;12.73;6.90;;;15.20;99.90;;;;;;5070515;28;20897;-59
2022/06/17 05:15:18;;;;;;;10.18;6.50;;;15.10;99.90;;;;;;5078611;28;20042;-59
2022/06/17 05:17:45;;;;;;;12.23;6.35;;;15.30;99.90;;;;;;5081768;28;20063;-59
2022/06/17 05:20:17;;;;;;;12.88;6.97;;;15.40;99.90;;;;;;5089471;28;20119;-59
2022/06/17 05:22:59;;;;;;;9.30;6.40;;;15.70;99.90;;;;;;5091779;28;20032;-60
2022/06/17 05:25:34;;;;;;;11.40;7.28;;;15.90;99.90;;;;;;5089107;28;20028;-60
2022/06/17 05:28:00;;;;;;;11.48;7.05;;;16.00;99.90;;;;;;5090024;28;20043;-60
2022/06/17 05:30:33;;;;;;;10.75;7.57;;;16.00;99.90;;;;;;5091479;28;20047;-60
2022/06/17 05:32:58;;;;;;;9.73;6.70;;;16.10;99.90;;;;;;5090029;28;20067;-60
2022/06/17 05:35:26;;;;;;;13.63;7.35;;;16.20;99.90;;;;;;5088323;28;20082;-60
2022/06/17 05:37:52;;;;;;;11.45;7.15;;;16.30;99.90;;;;;;5089699;28;20386;-60
2022/06/17 05:40:18;;;;;;;11.20;7.78;;;16.20;99.90;;;;;;5084571;28;20028;-60
2022/06/17 05:42:45;;;;;;;10.75;7.32;;;16.10;99.90;;;;;;5084878;28;20504;-60
2022/06/17 05:45:18;;;;;;;11.30;7.18;;;16.10;99.90;;;;;;5086031;28;20032;-60
2022/06/17 05:47:44;;;;;;;12.00;7.00;;;16.10;99.90;;;;;;5080534;28;20036;-60
2022/06/17 05:50:12;;;;;;;9.98;5.97;;;16.30;99.90;;;;;;5079157;28;20392;-60
2022/06/17 05:53:07;;;;;;;11.27;6.63;;;16.50;99.90;;;;;;5088969;28;20466;-60
2022/06/17 05:55:35;;;;;;;8.82;6.22;;;16.80;99.90;;;;;;5075985;28;20040;-60
2022/06/17 05:58:00;;;;;;;9.15;6.00;;;17.10;99.90;;;;;;5082189;28;20028;-61
2022/06/17 06:00:27;;;;;;;11.43;6.05;;;17.20;99.90;;;;;;5090522;28;20448;-61
2022/06/17 06:02:58;;;;;;;11.43;6.05;;;17.30;99.90;;;;;;5089123;28;20035;-60
2022/06/17 06:05:26;;;;;;;9.65;5.53;;;17.30;99.90;;;;;;5085376;28;20036;-61
2022/06/17 06:07:52;;;;;;;9.40;5.75;;;17.40;99.90;;;;;;5090855;28;20103;-61
2022/06/17 06:10:19;;;;;;;8.80;5.57;;;17.60;99.90;;;;;;5088864;28;20169;-61
2022/06/17 06:12:53;;;;;;;11.23;5.88;;;17.70;99.90;;;;;;5097265;28;20068;-60
2022/06/17 06:15:21;;;;;;;11.02;6.35;;;17.70;99.90;;;;;;5077904;28;20043;-61
2022/06/17 06:17:47;;;;;;;8.63;5.57;;;17.60;99.90;;;;;;5088936;28;20032;-60
2022/06/17 06:20:14;;;;;;;8.30;5.93;;;17.70;99.90;;;;;;5088773;28;20037;-60
2022/06/17 06:22:40;;;;;;;9.45;6.45;;;17.70;99.90;;;;;;5089424;28;20093;-60
2022/06/17 06:25:06;;;;;;;9.38;6.18;;;17.80;99.90;;;;;;5088825;28;20024;-61
2022/06/17 06:27:34;;;;;;;9.80;5.93;;;18.00;99.90;;;;;;5088907;28;20044;-60
2022/06/17 06:29:59;;;;;;;9.43;6.25;;;18.00;99.90;;;;;;5091895;28;20064;-61
2022/06/17 06:32:25;;;;;;;7.07;5.15;;;18.10;99.90;;;;;;5088140;28;20197;-61
2022/06/17 06:34:52;;;;;;;10.80;6.00;;;18.30;99.90;;;;;;5088733;28;20066;-60
2022/06/17 06:37:18;;;;;;;10.50;5.70;;;18.60;99.90;;;;;;5088122;28;20032;-60
2022/06/17 06:39:44;;;;;;;9.95;5.75;;;18.70;99.90;;;;;;5089098;28;20028;-60
2022/06/17 06:42:10;;;;;;;7.05;5.00;;;18.90;99.90;;;;;;5087716;28;20042;-61
2022/06/17 06:44:36;;;;;;;13.65;5.68;;;19.10;99.90;;;;;;5084006;28;20515;-61
2022/06/17 06:47:02;;;;;;;7.03;4.65;;;19.30;99.90;;;;;;5085992;28;20365;-61
2022/06/17 06:49:27;;;;;;;8.52;4.68;;;19.50;99.90;;;;;;5088120;28;20031;-61
2022/06/17 06:51:53;;;;;;;9.27;4.78;;;19.60;99.90;;;;;;5088648;28;20032;-61
2022/06/17 06:54:18;;;;;;;7.30;5.20;;;19.80;99.90;;;;;;5088133;28;20035;-61
2022/06/17 06:56:44;;;;;;;12.57;4.78;;;19.90;99.90;;;;;;5088675;28;20054;-61
2022/06/17 06:59:14;;;;;;;8.05;4.60;;;20.10;99.90;;;;;;5087693;28;20024;-60
2022/06/17 07:01:39;;;;;;;13.63;4.45;;;20.10;99.90;;;;;;5087823;28;20060;-62
2022/06/17 07:04:05;;;;;;;7.30;4.90;;;20.30;99.90;;;;;;5091774;28;20093;-61
2022/06/17 07:06:33;;;;;;;9.65;5.15;;;20.30;99.90;;;;;;5088205;28;20036;-61
2022/06/17 07:08:59;;;;;;;8.88;4.63;;;20.30;99.90;;;;;;5088633;28;20032;-61
2022/06/17 07:11:25;;;;;;;10.05;4.85;;;20.40;99.90;;;;;;5088050;28;20730;-61
2022/06/17 07:13:50;;;;;;;8.77;4.70;;;20.60;99.90;;;;;;5087322;28;20407;-61
2022/06/17 07:16:16;;;;;;;8.75;4.53;;;20.40;99.90;;;;;;5087646;28;20591;-61
2022/06/17 07:18:42;;;;;;;8.90;4.85;;;20.40;99.90;;;;;;5088695;28;20411;-61
2022/06/17 07:21:11;;;;;;;10.57;5.10;;;20.60;99.90;;;;;;5089916;28;20593;-62
2022/06/17 07:23:42;;;;;;;8.77;5.20;;;20.80;99.90;;;;;;5068181;28;20557;-61
2022/06/17 07:26:13;;;;;;;9.15;5.38;;;21.00;99.90;;;;;;5075019;28;20028;-61
2022/06/17 07:28:38;;;;;;;;;;;20.90;99.40;;;;;;5088921;28;20048;-61
2022/06/17 07:31:04;;;;;;;8.57;4.97;;;20.90;99.90;;;;;;5090886;28;20021;-61
2022/06/17 07:33:31;;;;;;;12.77;4.90;;;21.00;99.90;;;;;;5088147;28;20060;-61
2022/06/17 07:36:00;;;;;;;10.98;5.03;;;20.90;99.30;;;;;;5088392;28;20052;-61
2022/06/17 07:41:16;;;;;;;11.75;5.20;;;21.40;98.50;;;;;;5087819;28;20128;-61
2022/06/17 07:43:42;;;;;;;9.93;5.18;;;21.20;97.70;;;;;;5088579;28;20095;-61
2022/06/17 07:46:08;;;;;;;13.73;5.05;;;21.10;97.50;;;;;;5088288;28;20048;-61
2022/06/17 07:48:35;;;;;;;8.32;5.38;;;21.30;99.00;;;;;;5088076;28;20040;-61
2022/06/17 07:51:01;;;;;;;8.82;5.28;;;21.60;98.20;;;;;;5092409;28;20476;-61
2022/06/17 07:53:29;;;;;;;8.50;5.20;;;21.80;99.10;;;;;;5090153;28;20389;-61
2022/06/17 07:55:55;;;;;;;10.23;5.07;;;21.70;97.50;;;;;;5092350;28;20050;-61
2022/06/17 07:58:21;;;;;;;8.85;5.10;;;21.90;97.20;;;;;;5091145;28;20503;-61
2022/06/17 08:00:48;;;;;;;9.95;5.50;;;21.70;97.30;;;;;;5092222;28;20032;-61
2022/06/17 08:03:15;;;;;;;9.30;4.70;;;21.80;96.30;;;;;;5090616;28;20468;-62
2022/06/17 08:05:48;;;;;;;8.02;4.88;;;21.90;94.90;;;;;;5092389;28;20582;-61
2022/06/17 08:08:21;;;;;;;9.68;5.38;;;22.10;97.10;;;;;;5091368;28;20039;-61
2022/06/17 08:10:49;;;;;;;7.97;5.15;;;22.40;97.10;;;;;;5092124;28;20043;-61
2022/06/17 08:13:15;;;;;;;12.63;5.90;;;22.40;93.80;;;;;;5090830;28;20492;-61
2022/06/17 08:15:42;;;;;;;8.05;5.22;;;22.40;93.90;;;;;;5091853;28;20044;-61
2022/06/17 08:18:09;;;;;;;8.05;5.05;;;22.50;94.80;;;;;;5089719;28;20457;-61
2022/06/17 08:20:35;;;;;;;10.68;5.70;;;22.60;95.40;;;;;;5090772;28;20036;-61
2022/06/17 08:23:03;;;;;;;7.65;5.00;;;22.80;94.90;;;;;;5091772;28;20031;-61
2022/06/17 08:25:31;;;;;;;9.07;4.80;;;22.80;93.30;;;;;;5091011;28;20110;-61
2022/06/17 08:27:58;;;;;;;7.85;5.10;;;23.10;92.00;;;;;;5091551;28;20056;-61
2022/06/17 08:30:27;;;;;;;9.63;5.53;;;23.00;92.30;;;;;;5090892;28;20233;-61
2022/06/17 08:32:55;;;;;;;8.55;4.70;;;22.80;92.30;;;;;;5090432;28;20036;-61
2022/06/17 08:35:30;;;;;;;8.98;4.55;;;22.90;94.20;;;;;;5090650;28;20028;-61
2022/06/17 08:38:04;;;;;;;9.88;4.70;;;23.20;93.30;;;;;;5090619;28;20046;-61
2022/06/17 08:40:52;;;;;;;6.97;4.88;;;23.40;93.70;;;;;;5078467;28;20473;-61
2022/06/17 08:43:50;;;;;;;8.38;4.82;;;23.40;92.90;;;;;;5085242;28;20484;-61
2022/06/17 08:46:39;;;;;;;8.60;4.53;;;23.40;92.70;;;;;;5086738;28;20032;-64
2022/06/17 08:49:23;;;;;;;10.38;5.07;;;23.50;89.60;;;;;;5069517;28;20043;-64
2022/06/17 08:52:16;;;;;;;6.72;4.80;;;23.50;90.80;;;;;;5080892;28;20387;-64
2022/06/17 08:54:57;;;;;;;11.82;4.05;;;23.70;92.50;;;;;;5075887;28;20062;-63
2022/06/17 08:57:36;;;;;;;6.00;4.03;;;24.00;90.50;;;;;;5087258;28;20590;-64
2022/06/17 09:00:06;;;;;;;8.93;4.07;;;24.30;90.00;;;;;;5087634;28;20097;-63
2022/06/17 09:02:46;;;;;;;4.72;3.67;;;24.40;80.20;;;;;;5078151;28;20052;-64
2022/06/17 09:05:15;;;;;;;8.63;3.70;;;24.20;81.10;;;;;;5084301;28;20500;-63
2022/06/17 09:07:57;;;;;;;10.07;3.75;;;24.20;86.30;;;;;;5088856;28;20084;-64
2022/06/17 09:10:34;;;;;;;5.95;3.70;;;24.30;82.60;;;;;;5069988;28;20036;-63
2022/06/17 09:13:17;;;;;;;8.20;3.80;;;24.20;81.90;;;;;;5078606;28;20039;-63
2022/06/17 09:16:09;;;;;;;8.20;4.03;;;24.10;85.40;;;;;;5075965;28;20436;-62
2022/06/17 09:18:47;;;;;;;10.18;3.90;;;24.10;83.10;;;;;;5088331;28;20023;-62
2022/06/17 09:21:18;;;;;;;6.03;4.57;;;24.40;84.90;;;;;;5075959;28;20111;-62
2022/06/17 09:23:44;;;;;;;11.63;3.95;;;24.50;79.00;;;;;;5078111;28;20040;-62
2022/06/17 09:26:33;;;;;;;6.22;3.80;;;24.40;84.40;;;;;;5090510;28;20464;-62
2022/06/17 09:29:18;;;;;;;6.55;3.47;;;24.80;76.90;;;;;;5090475;28;20048;-62
2022/06/17 09:32:05;;;;;;;4.00;3.60;;;25.20;79.00;;;;;;5088614;28;20035;-63
2022/06/17 09:34:47;;;;;;;10.07;4.07;;;25.10;76.40;;;;;;5084124;28;20047;-63
2022/06/17 09:37:27;;;;;;;5.05;4.18;;;24.80;77.60;;;;;;5086833;28;20060;-62
2022/06/17 09:39:59;;;;;;;4.82;3.60;;;25.00;76.90;;;;;;5074345;28;20059;-62
2022/06/17 09:43:03;;;;;;;4.75;3.70;;;25.10;74.60;;;;;;5089461;28;20039;-62
2022/06/17 09:45:37;;;;;;;6.40;4.10;;;25.60;74.80;;;;;;5048479;28;20126;-62
2022/06/17 09:48:34;;;;;;;10.48;3.67;;;25.40;70.10;;;;;;5087589;28;20028;-62
2022/06/17 09:51:17;;;;;;;4.18;3.30;;;25.70;70.90;;;;;;5073761;28;20029;-62
2022/06/17 09:53:56;;;;;;;6.05;3.83;;;25.60;70.20;;;;;;5089520;28;20024;-62
2022/06/17 09:56:31;;;;;;;8.65;3.90;;;25.40;68.80;;;;;;5087338;28;20487;-62
2022/06/17 09:59:12;;;;;;;13.63;3.90;;;25.40;74.40;;;;;;5086833;28;20028;-62
2022/06/17 10:01:40;;;;;;;8.40;3.22;;;25.60;70.70;;;;;;5089848;28;20063;-62
2022/06/17 10:04:11;;;;;;;7.35;4.03;;;25.70;70.30;;;;;;5071366;28;20081;-62
2022/06/17 10:06:46;;;;;;;5.78;3.60;;;26.10;76.20;;;;;;5068967;28;20021;-62
2022/06/17 10:09:20;;;;;;;6.85;4.07;;;25.90;71.40;;;;;;5074688;28;20131;-62
2022/06/17 10:12:11;;;;;;;5.22;3.92;;;25.40;70.30;;;;;;5079776;28;20055;-62
2022/06/17 10:14:39;;;;;;;;;;;25.60;72.50;;;;;;5069108;28;20037;-62
2022/06/17 10:20:32;;;;;;;9.70;3.33;;;26.30;70.20;;;;;;5090749;28;20093;-62
2022/06/17 10:23:29;;;;;;;5.32;3.55;;;26.20;66.60;;;;;;5087650;28;20031;-62
2022/06/17 10:26:07;;;;;;;6.00;3.63;;;26.40;66.90;;;;;;5083310;28;20033;-62
2022/06/17 10:29:13;;;;;;;7.82;3.47;;;26.60;71.50;;;;;;5090502;28;20761;-62
2022/06/17 10:31:47;;;;;;;4.93;3.35;;;26.80;65.60;;;;;;5079881;28;20095;-62
2022/06/17 10:34:19;;;;;;;3.88;3.45;;;27.00;64.80;;;;;;5080494;28;20059;-62
2022/06/17 10:36:46;;;;;;;5.18;3.25;;;27.10;63.90;;;;;;5103953;28;20066;-63
2022/06/17 10:39:17;;;;;;;6.63;3.28;;;27.10;62.50;;;;;;5080628;28;20368;-63
2022/06/17 10:41:43;;;;;;;5.82;3.70;;;27.00;61.60;;;;;;5082954;28;20073;-62
2022/06/17 10:44:13;;;;;;;6.63;3.83;;;26.80;62.50;;;;;;5081757;28;20032;-62
2022/06/17 10:46:44;;;;;;;7.53;3.90;;;26.80;65.20;;;;;;5069941;28;20043;-62
2022/06/17 10:49:19;;;;;;;5.47;3.33;;;26.90;66.20;;;;;;5079377;28;20040;-63
2022/06/17 10:51:47;;;;;;;8.77;3.78;;;27.00;62.30;;;;;;5074477;28;20024;-63
2022/06/17 10:54:21;;;;;;;7.00;3.53;;;26.90;64.30;;;;;;5088974;28;20043;-62
2022/06/17 10:57:09;;;;;;;4.28;3.00;;;27.00;63.80;;;;;;5086570;28;20073;-62
2022/06/17 10:59:36;;;;;;;5.88;3.63;;;27.00;60.20;;;;;;5077371;28;20040;-63
2022/06/17 11:02:02;;;;;;;6.32;3.60;;;26.90;62.90;;;;;;5076776;28;20032;-62
2022/06/17 11:04:30;;;;;;;5.68;3.22;;;27.20;63.20;;;;;;5082344;28;20028;-62
2022/06/17 11:07:18;;;;;;;8.38;3.85;;;27.40;61.20;;;;;;5091842;28;20027;-62
2022/06/17 11:09:54;;;;;;;4.35;3.50;;;27.60;60.00;;;;;;5087903;28;20032;-62
2022/06/17 11:12:37;;;;;;;8.65;3.97;;;27.60;57.50;;;;;;5088128;28;20039;-62
2022/06/17 11:15:34;;;;;;;5.05;3.67;;;27.50;62.50;;;;;;5069301;28;20033;-62
2022/06/17 11:18:05;;;;;;;5.03;3.53;;;27.60;58.20;;;;;;5075356;28;20052;-62
2022/06/17 11:20:33;;;;;;;4.70;3.50;;;27.90;62.50;;;;;;5081373;28;20032;-62
2022/06/17 11:23:19;;;;;;;9.00;3.92;;;27.90;62.30;;;;;;5086921;28;20047;-62
2022/06/17 11:25:46;;;;;;;7.68;3.60;;;27.60;59.50;;;;;;5086225;28;20028;-61
2022/06/17 11:28:20;;;;;;;4.70;3.75;;;27.30;60.00;;;;;;5072336;28;20052;-61
2022/06/17 11:31:00;;;;;;;13.80;3.58;;;27.10;61.30;;;;;;5074155;28;20043;-62
2022/06/17 11:33:37;;;;;;;5.07;3.40;;;27.20;59.10;;;;;;5074680;28;20034;-62
2022/06/17 11:36:24;;;;;;;4.22;3.10;;;27.10;60.20;;;;;;5079062;28;20049;-62
2022/06/17 11:38:51;;;;;;;4.85;3.05;;;27.30;57.20;;;;;;5085931;28;20032;-62
2022/06/17 11:41:28;;;;;;;4.82;2.97;;;27.60;59.50;;;;;;5092728;28;20111;-62
2022/06/17 11:43:56;;;;;;;3.83;3.03;;;28.00;56.80;;;;;;5086870;28;20035;-62
2022/06/17 11:46:32;;;;;;;6.32;3.05;;;27.80;55.00;;;;;;5090136;28;20419;-62
2022/06/17 11:49:13;;;;;;;4.25;3.10;;;27.70;56.10;;;;;;5090570;28;20025;-62
2022/06/17 11:51:51;;;;;;;5.32;2.65;;;27.90;57.00;;;;;;5090181;28;20469;-62
2022/06/17 11:54:25;;;;;;;4.63;2.90;;;28.10;53.80;;;;;;5092208;28;20040;-62
2022/06/17 11:56:53;;;;;;;6.53;2.50;;;28.20;53.80;;;;;;5093741;28;20145;-62
2022/06/17 11:59:28;;;;;;;4.15;2.88;;;28.10;53.40;;;;;;5089109;28;20473;-62
2022/06/17 12:01:54;;;;;;;10.77;3.00;;;28.10;50.50;;;;;;5087335;28;20871;-62
2022/06/17 12:05:03;;;;;;;6.32;3.60;;;28.20;56.10;;;;;;5090943;28;20032;-62
2022/06/17 12:07:32;;;;;;;4.60;3.53;;;28.50;56.20;;;;;;5071304;28;20518;-62
2022/06/17 12:10:12;;;;;;;3.65;3.10;;;28.00;52.80;;;;;;5086628;28;20468;-61
2022/06/17 12:12:39;;;;;;;3.28;2.50;;;27.80;52.10;;;;;;5088138;28;20097;-61
2022/06/17 12:15:31;;;;;;;5.97;2.95;;;27.90;53.30;;;;;;5080623;28;20050;-61
2022/06/17 12:17:59;;;;;;;3.53;2.90;;;28.30;52.00;;;;;;5090588;28;20107;-61
2022/06/17 12:20:43;;;;;;;5.43;2.42;;;28.50;52.00;;;;;;5090342;28;20028;-62
2022/06/17 12:23:25;;;;;;;5.80;2.90;;;28.30;50.90;;;;;;5090016;28;20043;-62
2022/06/17 12:26:05;;;;;;;3.22;2.47;;;28.60;52.40;;;;;;5084186;28;20477;-61
2022/06/17 12:28:38;;;;;;;;;;;28.80;52.90;;;;;;5079587;28;20059;-61
2022/06/17 12:31:22;;;;;;;5.13;2.30;;;28.90;51.90;;;;;;5072496;28;19920;-62
2022/06/17 12:34:06;;;;;;;3.33;2.50;;;29.20;54.00;;;;;;5073285;28;20062;-61
2022/06/17 12:36:53;;;;;;;3.28;2.60;;;29.10;50.30;;;;;;5090194;28;20132;-62
2022/06/17 12:39:45;;;;;;;2.45;2.25;;;29.20;47.60;;;;;;5090374;28;20028;-61
2022/06/17 12:42:17;;;;;;;5.05;2.65;;;29.20;48.50;;;;;;5081577;28;20036;-62
2022/06/17 12:44:55;;;;;;;5.25;2.60;;;29.20;50.20;;;;;;5076029;28;20102;-61
2022/06/17 12:47:36;;;;;;;3.53;2.30;;;28.70;49.70;;;;;;5081473;28;20035;-61
2022/06/17 12:53:27;;;;;;;3.75;2.58;;;28.30;48.90;;;;;;5088140;28;20139;-61
2022/06/17 12:55:55;;;;;;;4.47;2.28;;;28.70;51.00;;;;;;5082965;28;20028;-61
2022/06/17 12:58:28;;;;;;;3.67;2.33;;;28.90;49.10;;;;;;5084242;28;20020;-61
2022/06/17 13:01:07;;;;;;;3.00;2.55;;;28.90;48.50;;;;;;5089039;28;20070;-62
2022/06/17 13:03:46;;;;;;;4.32;2.25;;;29.00;47.40;;;;;;5079951;28;20437;-62
2022/06/17 13:06:24;;;;;;;4.28;2.53;;;28.70;45.60;;;;;;5090211;28;20039;-62
2022/06/17 13:09:09;;;;;;;3.67;2.40;;;28.60;48.90;;;;;;5085036;28;20042;-62
2022/06/17 13:11:47;;;;;;;3.10;2.20;;;28.80;47.40;;;;;;5082120;28;20475;-61
2022/06/17 13:14:17;;;;;;;10.02;2.70;;;28.90;49.20;;;;;;5090229;28;20036;-61
2022/06/17 13:17:04;;;;;;;2.88;2.30;;;28.70;47.50;;;;;;5087430;28;20044;-61
2022/06/17 13:19:45;;;;;;;3.60;2.53;;;28.60;50.90;;;;;;5098493;28;20052;-61
2022/06/17 13:22:45;;;;;;;4.90;2.58;;;28.50;49.10;;;;;;5070370;28;20522;-61
2022/06/17 13:25:38;;;;;;;4.10;2.38;;;27.90;49.50;;;;;;5090210;28;20063;-61